Time;durP1;ratioP1;P1;durP2;ratioP2;P2;SDS_P1;SDS_P2;PMS_P1;PMS_P2;Temp;Humidity;BMP_temperature;BMP_pressure;BME280_temperature;BME280_humidity;BME280_pressure;Samples;Min_cycle;Max_cycle;Signal;HPM_P1;HPM_P2
2021/07/11 00:01:46;;;;;;;16.83;13.57;;;24.30;75.90;;;;;;4937056;29;20024;-78
2021/07/11 00:04:11;;;;;;;21.15;13.82;;;24.30;76.10;;;;;;4919905;29;20058;-77
2021/07/11 00:06:37;;;;;;;15.15;13.00;;;24.30;76.30;;;;;;4919921;29;20133;-77
2021/07/11 00:09:07;;;;;;;20.00;14.57;;;24.20;76.50;;;;;;4936833;29;20032;-77
2021/07/11 00:11:33;;;;;;;17.77;13.45;;;24.10;76.70;;;;;;4936673;29;20121;-77
2021/07/11 00:14:01;;;;;;;18.92;13.55;;;24.10;76.90;;;;;;4935767;29;20036;-78
2021/07/11 00:16:28;;;;;;;18.60;13.75;;;24.10;77.10;;;;;;4936878;29;20153;-77
2021/07/11 00:18:55;;;;;;;16.77;13.95;;;24.00;77.30;;;;;;4936845;29;20039;-78
2021/07/11 00:21:21;;;;;;;18.90;13.75;;;24.00;77.50;;;;;;4936937;29;20402;-78
2021/07/11 00:23:47;;;;;;;18.02;13.57;;;23.90;77.60;;;;;;4936763;29;20023;-79
2021/07/11 00:26:12;;;;;;;19.70;15.30;;;24.00;77.90;;;;;;4936816;29;20031;-78
2021/07/11 00:28:39;;;;;;;21.63;14.68;;;23.90;78.10;;;;;;4936491;29;20030;-79
2021/07/11 00:31:05;;;;;;;22.65;14.60;;;23.90;78.30;;;;;;4937488;29;20024;-78
2021/07/11 00:33:31;;;;;;;16.30;13.70;;;23.80;78.30;;;;;;4936699;29;20042;-72
2021/07/11 00:35:56;;;;;;;16.13;14.30;;;23.80;78.60;;;;;;4936266;29;20027;-72
2021/07/11 00:38:23;;;;;;;18.10;13.18;;;23.70;78.70;;;;;;4936102;29;20028;-72
2021/07/11 00:40:49;;;;;;;18.08;13.73;;;23.80;79.00;;;;;;4936067;29;20032;-71
2021/07/11 00:43:14;;;;;;;19.70;13.55;;;23.70;79.20;;;;;;4936061;29;20036;-72
2021/07/11 00:45:40;;;;;;;17.90;14.55;;;23.70;79.40;;;;;;4936326;29;20110;-72
2021/07/11 00:48:07;;;;;;;20.13;14.73;;;23.70;79.50;;;;;;4936030;29;20038;-72
2021/07/11 00:50:33;;;;;;;17.55;13.63;;;23.70;79.60;;;;;;4936136;29;20027;-72
2021/07/11 00:52:59;;;;;;;18.55;14.25;;;23.60;79.60;;;;;;4935955;29;20027;-72
2021/07/11 00:55:25;;;;;;;16.85;13.90;;;23.60;79.60;;;;;;4935610;29;20410;-72
2021/07/11 00:57:50;;;;;;;19.90;13.90;;;23.60;79.70;;;;;;4935748;29;20034;-72
2021/07/11 01:00:17;;;;;;;15.30;13.48;;;23.60;79.80;;;;;;4935601;29;20458;-72
2021/07/11 01:03:32;;;;;;;18.13;13.77;;;23.60;79.90;;;;;;4935611;29;20023;-72
2021/07/11 01:05:58;;;;;;;18.63;14.10;;;23.50;79.90;;;;;;4929469;29;20082;-72
2021/07/11 01:08:43;;;;;;;24.05;14.13;;;23.50;79.80;;;;;;4935953;29;20035;-72
2021/07/11 01:11:10;;;;;;;19.35;14.10;;;23.40;80.00;;;;;;4935353;29;20356;-72
2021/07/11 01:13:39;;;;;;;18.67;14.43;;;23.40;80.10;;;;;;4918288;29;20031;-72
2021/07/11 01:16:12;;;;;;;16.75;14.23;;;23.40;80.30;;;;;;4918389;29;20039;-72
2021/07/11 01:18:40;;;;;;;19.85;14.40;;;23.40;80.50;;;;;;4935474;29;20058;-72
2021/07/11 01:21:09;;;;;;;18.83;14.90;;;23.30;80.50;;;;;;4935318;29;20087;-72
2021/07/11 01:23:53;;;;;;;20.17;14.60;;;23.30;80.70;;;;;;4935492;29;20426;-72
2021/07/11 01:26:19;;;;;;;19.30;14.77;;;23.30;80.90;;;;;;4935111;29;20050;-72
2021/07/11 01:28:48;;;;;;;19.70;14.45;;;23.20;80.90;;;;;;4935189;29;20562;-73
2021/07/11 01:31:15;;;;;;;18.15;15.23;;;23.20;81.20;;;;;;4935274;29;20082;-72
2021/07/11 01:33:43;;;;;;;18.42;14.25;;;23.20;81.30;;;;;;4935156;29;20430;-73
2021/07/11 01:36:11;;;;;;;21.45;15.00;;;23.20;81.60;;;;;;4949915;29;20027;-72
2021/07/11 01:38:40;;;;;;;16.60;14.35;;;23.20;81.70;;;;;;4935251;29;20090;-72
2021/07/11 01:41:08;;;;;;;20.73;15.55;;;23.10;81.80;;;;;;4935282;29;20032;-73
2021/07/11 01:43:35;;;;;;;17.73;15.38;;;23.10;82.00;;;;;;4934823;29;20024;-73
2021/07/11 01:46:02;;;;;;;22.10;15.27;;;23.10;82.70;;;;;;4934979;29;20075;-72
2021/07/11 01:48:30;;;;;;;18.40;14.75;;;23.10;82.30;;;;;;4934748;29;20027;-72
2021/07/11 01:50:56;;;;;;;24.23;15.55;;;23.10;82.40;;;;;;4934633;29;20422;-72
2021/07/11 01:53:25;;;;;;;18.60;15.38;;;23.10;82.40;;;;;;4934585;29;20023;-72
2021/07/11 01:55:52;;;;;;;25.77;16.92;;;23.10;82.60;;;;;;4934386;29;20506;-72
2021/07/11 01:58:19;;;;;;;24.15;15.73;;;23.10;82.60;;;;;;4934631;29;20023;-72
2021/07/11 02:00:50;;;;;;;20.25;15.52;;;23.10;82.70;;;;;;4917724;29;20066;-72
2021/07/11 02:03:20;;;;;;;20.42;16.27;;;23.10;82.80;;;;;;4934729;29;20035;-72
2021/07/11 02:05:50;;;;;;;19.70;16.00;;;23.00;82.90;;;;;;4934688;29;20470;-72
2021/07/11 02:08:16;;;;;;;20.70;14.20;;;23.10;83.20;;;;;;4934967;29;20032;-72
2021/07/11 02:10:44;;;;;;;21.02;15.75;;;23.10;83.20;;;;;;4934931;29;20036;-72
2021/07/11 02:13:23;;;;;;;18.30;14.60;;;23.10;83.40;;;;;;4917637;29;20028;-72
2021/07/11 02:15:51;;;;;;;21.73;15.00;;;23.10;83.50;;;;;;4934872;29;20024;-72
2021/07/11 02:18:21;;;;;;;21.45;15.13;;;23.20;83.70;;;;;;4934566;29;20489;-72
2021/07/11 02:20:49;;;;;;;19.08;14.48;;;23.40;83.70;;;;;;4934634;29;20499;-72
2021/07/11 02:23:17;;;;;;;22.25;14.43;;;23.70;83.20;;;;;;4917387;29;20442;-72
2021/07/11 02:25:46;;;;;;;19.77;13.60;;;24.00;82.40;;;;;;4934425;29;20031;-72
2021/07/11 02:28:14;;;;;;;18.40;14.43;;;24.40;81.30;;;;;;4934740;29;20031;-72
2021/07/11 02:30:50;;;;;;;18.70;14.43;;;24.80;80.20;;;;;;4934628;29;20902;-72
2021/07/11 02:33:17;;;;;;;15.90;12.55;;;25.20;79.00;;;;;;4935055;29;20429;-72
2021/07/11 02:35:46;;;;;;;19.58;13.27;;;25.70;77.70;;;;;;4934413;29;20031;-73
2021/07/11 02:38:16;;;;;;;18.27;12.80;;;26.20;76.20;;;;;;4937312;29;20058;-72
2021/07/11 02:40:43;;;;;;;21.13;12.93;;;26.80;74.70;;;;;;4938302;29;20076;-72
2021/07/11 02:43:12;;;;;;;16.70;12.05;;;27.30;73.00;;;;;;4937829;29;20024;-72
2021/07/11 02:45:41;;;;;;;17.50;11.43;;;27.90;71.50;;;;;;4938003;29;20084;-72
2021/07/11 02:48:10;;;;;;;16.52;11.85;;;28.50;70.00;;;;;;4937845;29;20032;-72
2021/07/11 02:50:37;;;;;;;19.17;12.65;;;29.10;68.40;;;;;;4937985;29;20059;-72
2021/07/11 02:53:04;;;;;;;27.27;12.02;;;29.70;66.90;;;;;;4937830;29;20843;-73
2021/07/11 02:55:36;;;;;;;16.60;11.52;;;30.30;65.50;;;;;;4937740;29;20081;-73
2021/07/11 02:58:13;;;;;;;20.98;11.15;;;30.90;63.90;;;;;;4937555;29;20462;-73
2021/07/11 03:00:41;;;;;;;16.45;10.57;;;31.60;62.40;;;;;;4937674;29;20107;-72
2021/07/11 03:03:10;;;;;;;17.60;9.98;;;32.20;61.20;;;;;;4920737;29;20413;-72
2021/07/11 03:05:36;;;;;;;14.18;10.50;;;32.90;59.90;;;;;;4937704;29;20079;-73
2021/07/11 03:08:02;;;;;;;14.15;10.32;;;33.50;58.70;;;;;;4920460;29;20032;-72
2021/07/11 03:10:28;;;;;;;14.18;10.00;;;34.10;57.30;;;;;;4937506;29;20039;-72
2021/07/11 03:12:56;;;;;;;13.30;10.48;;;34.80;56.10;;;;;;4937639;29;20032;-72
2021/07/11 03:15:22;;;;;;;14.90;9.80;;;35.30;54.70;;;;;;4937496;29;20031;-73
2021/07/11 03:17:49;;;;;;;15.10;10.07;;;35.90;53.60;;;;;;4937555;29;20059;-73
2021/07/11 03:20:15;;;;;;;11.57;8.18;;;36.40;52.40;;;;;;4937488;29;20032;-72
2021/07/11 03:22:42;;;;;;;11.10;8.75;;;36.90;51.00;;;;;;4937281;29;20031;-73
2021/07/11 03:25:11;;;;;;;11.07;8.52;;;37.30;50.00;;;;;;4937288;29;20031;-72
2021/07/11 03:27:38;;;;;;;13.55;9.30;;;37.80;49.10;;;;;;4937399;29;20083;-72
2021/07/11 03:30:20;;;;;;;8.77;7.95;;;38.20;48.40;;;;;;4937359;29;20082;-73
2021/07/11 03:32:59;;;;;;;15.85;8.82;;;38.70;47.40;;;;;;4920154;29;20114;-73
2021/07/11 03:35:31;;;;;;;11.45;7.97;;;39.30;46.80;;;;;;4937250;29;20019;-73
2021/07/11 03:37:59;;;;;;;12.57;7.28;;;39.80;45.50;;;;;;4920079;29;20055;-73
2021/07/11 03:40:29;;;;;;;10.52;7.00;;;39.90;44.00;;;;;;4937163;29;20024;-73
2021/07/11 03:42:58;;;;;;;7.82;7.00;;;40.00;43.70;;;;;;4937085;29;20390;-73
2021/07/11 03:45:26;;;;;;;9.43;7.35;;;40.40;43.50;;;;;;4936989;29;20083;-72
2021/07/11 03:47:58;;;;;;;7.90;7.18;;;40.90;43.20;;;;;;4936569;29;20114;-73
2021/07/11 03:50:26;;;;;;;10.50;7.07;;;41.40;42.70;;;;;;4936332;29;20024;-72
2021/07/11 03:52:56;;;;;;;8.05;7.25;;;41.90;42.10;;;;;;4936801;29;20366;-73
2021/07/11 03:55:22;;;;;;;10.45;6.82;;;42.30;41.50;;;;;;4936948;29;20150;-78
2021/07/11 03:57:51;;;;;;;8.02;7.30;;;42.80;41.30;;;;;;4936937;29;20032;-79
2021/07/11 04:00:18;;;;;;;16.58;8.02;;;43.10;40.80;;;;;;4936847;29;20024;-78
2021/07/11 04:02:49;;;;;;;17.67;9.50;;;43.50;40.50;;;;;;4936897;29;20474;-78
2021/07/11 04:05:19;;;;;;;9.02;8.10;;;43.90;40.00;;;;;;4936695;29;20082;-78
2021/07/11 04:07:47;;;;;;;12.55;8.20;;;44.30;39.90;;;;;;4936693;29;20474;-78
2021/07/11 04:10:14;;;;;;;11.30;8.85;;;44.80;39.50;;;;;;4936497;29;20470;-79
2021/07/11 04:12:40;;;;;;;15.20;8.43;;;45.10;38.90;;;;;;4936630;29;20110;-79
2021/07/11 04:15:06;;;;;;;13.93;8.82;;;45.50;38.50;;;;;;4919390;29;20070;-79
2021/07/11 04:17:35;;;;;;;21.95;7.85;;;45.80;38.90;;;;;;4936525;29;20111;-79
2021/07/11 04:20:03;;;;;;;9.65;7.45;;;46.00;37.50;;;;;;4936506;29;20032;-80
2021/07/11 04:22:29;;;;;;;10.80;7.57;;;46.20;37.00;;;;;;4936840;29;20034;-80
2021/07/11 04:24:55;;;;;;;19.63;11.10;;;46.40;36.70;;;;;;4936567;29;20434;-79
2021/07/11 04:27:23;;;;;;;9.30;7.82;;;46.60;36.60;;;;;;4936440;29;20083;-80
2021/07/11 04:29:53;;;;;;;9.68;7.13;;;46.90;36.50;;;;;;4936322;29;20035;-80
2021/07/11 04:32:19;;;;;;;12.77;7.97;;;47.20;36.10;;;;;;4936000;29;20034;-79
2021/07/11 04:34:45;;;;;;;13.35;8.93;;;47.50;35.90;;;;;;4936234;29;20031;-79
2021/07/11 04:37:11;;;;;;;25.27;15.93;;;47.80;35.70;;;;;;4936244;29;20059;-79
2021/07/11 04:39:37;;;;;;;22.13;16.33;;;48.00;35.60;;;;;;4936198;29;20078;-79
2021/07/11 04:42:03;;;;;;;9.20;7.57;;;48.20;35.30;;;;;;4918870;29;20379;-72
2021/07/11 04:44:30;;;;;;;11.50;10.30;;;48.40;34.70;;;;;;4918846;29;20526;-72
2021/07/11 04:46:56;;;;;;;9.60;7.75;;;48.60;34.20;;;;;;4935756;29;20054;-72
2021/07/11 04:49:22;;;;;;;15.85;6.60;;;48.80;34.10;;;;;;4934968;29;20103;-73
2021/07/11 04:51:50;;;;;;;11.40;7.22;;;49.00;33.60;;;;;;4935002;29;20027;-73
2021/07/11 04:54:16;;;;;;;12.40;6.68;;;49.20;33.40;;;;;;4935439;29;20486;-73
2021/07/11 04:56:42;;;;;;;9.68;6.45;;;49.30;33.20;;;;;;4935403;29;20039;-72
2021/07/11 04:59:07;;;;;;;17.42;6.22;;;49.50;32.80;;;;;;4935121;29;20032;-73
2021/07/11 05:01:34;;;;;;;7.50;6.35;;;49.70;32.40;;;;;;4935115;29;20381;-73
2021/07/11 05:04:00;;;;;;;17.42;6.32;;;49.90;32.30;;;;;;4918230;29;20393;-72
2021/07/11 05:06:26;;;;;;;8.55;5.75;;;50.10;32.20;;;;;;4935241;29;20038;-73
2021/07/11 05:08:52;;;;;;;14.45;6.47;;;50.30;32.10;;;;;;4917901;29;20126;-73
2021/07/11 05:11:18;;;;;;;9.55;6.57;;;50.60;32.20;;;;;;4935271;29;20087;-72
2021/07/11 05:13:44;;;;;;;8.00;6.25;;;50.80;31.90;;;;;;4935341;29;20474;-72
2021/07/11 05:16:10;;;;;;;11.35;6.18;;;51.00;31.80;;;;;;4935270;29;20036;-72
2021/07/11 05:18:36;;;;;;;8.75;6.03;;;51.10;31.50;;;;;;4918183;29;20496;-73
2021/07/11 05:21:02;;;;;;;8.60;7.28;;;51.20;31.20;;;;;;4935139;29;20035;-72
2021/07/11 05:23:28;;;;;;;8.52;7.00;;;51.30;31.00;;;;;;4934979;29;20058;-73
2021/07/11 05:25:55;;;;;;;6.90;5.65;;;51.30;30.80;;;;;;4935014;29;20028;-72
2021/07/11 05:28:21;;;;;;;6.80;6.07;;;51.40;30.80;;;;;;4917803;29;20426;-72
2021/07/11 05:30:46;;;;;;;6.43;5.82;;;51.60;30.80;;;;;;4934904;29;20422;-72
2021/07/11 05:33:12;;;;;;;6.82;5.68;;;51.70;30.40;;;;;;4934896;29;20042;-72
2021/07/11 05:35:38;;;;;;;6.35;5.72;;;51.80;30.20;;;;;;4934898;29;20028;-73
2021/07/11 05:38:04;;;;;;;6.10;5.50;;;52.00;30.00;;;;;;4934205;29;20115;-73
2021/07/11 05:40:29;;;;;;;6.30;5.70;;;52.10;30.00;;;;;;4934340;29;20023;-72
2021/07/11 05:42:56;;;;;;;7.57;5.95;;;52.30;29.90;;;;;;4917143;29;20529;-73
2021/07/11 05:45:21;;;;;;;7.95;6.45;;;52.30;29.90;;;;;;4934521;29;20033;-72
2021/07/11 05:47:47;;;;;;;11.77;7.05;;;52.40;30.00;;;;;;4934398;29;20384;-73
2021/07/11 05:50:13;;;;;;;8.57;7.03;;;52.50;30.40;;;;;;4934317;29;20020;-73
2021/07/11 05:52:39;;;;;;;10.23;7.15;;;52.50;30.50;;;;;;4934293;29;20368;-73
2021/07/11 05:55:06;;;;;;;11.57;6.60;;;52.50;30.40;;;;;;4934315;29;20067;-73
2021/07/11 05:57:32;;;;;;;6.88;5.65;;;52.50;30.00;;;;;;4933996;29;20131;-73
2021/07/11 05:59:57;;;;;;;16.23;6.97;;;52.50;29.80;;;;;;4917143;29;20027;-73
2021/07/11 06:02:23;;;;;;;8.52;6.07;;;52.40;29.80;;;;;;4917355;29;20027;-80
2021/07/11 06:04:49;;;;;;;11.55;5.97;;;52.30;29.70;;;;;;4934518;29;20028;-80
2021/07/11 06:07:15;;;;;;;9.55;6.53;;;52.50;29.90;;;;;;4948797;29;20034;-81
2021/07/11 06:09:40;;;;;;;12.43;6.15;;;52.50;29.90;;;;;;4934230;29;20091;-80
2021/07/11 06:12:07;;;;;;;7.00;6.30;;;52.60;30.00;;;;;;4933657;29;20066;-80
2021/07/11 06:14:33;;;;;;;7.22;6.38;;;52.60;29.90;;;;;;4934193;29;20091;-80
2021/07/11 06:17:00;;;;;;;11.13;6.00;;;52.50;29.80;;;;;;4933965;29;20177;-79
2021/07/11 06:19:25;;;;;;;13.07;6.53;;;52.30;29.80;;;;;;4933803;29;20050;-80
2021/07/11 06:21:51;;;;;;;10.05;6.15;;;52.50;30.00;;;;;;4934478;29;20027;-80
2021/07/11 06:24:17;;;;;;;12.57;6.70;;;52.30;29.70;;;;;;4933763;29;20340;-79
2021/07/11 06:26:44;;;;;;;11.30;6.03;;;52.30;30.00;;;;;;4933610;29;20024;-79
2021/07/11 06:29:09;;;;;;;11.75;6.07;;;52.20;29.80;;;;;;4933507;29;20028;-82
2021/07/11 06:31:35;;;;;;;7.03;5.72;;;52.30;29.80;;;;;;4933676;29;20043;-81
2021/07/11 06:34:01;;;;;;;7.40;6.30;;;52.30;29.70;;;;;;4933581;29;20087;-81
2021/07/11 06:36:27;;;;;;;8.80;5.80;;;52.30;29.80;;;;;;4916137;29;20114;-82
2021/07/11 06:38:53;;;;;;;9.45;6.13;;;52.30;29.70;;;;;;4932983;29;20024;-79
2021/07/11 06:41:19;;;;;;;10.57;5.97;;;52.40;29.80;;;;;;4932917;29;20083;-77
2021/07/11 06:43:45;;;;;;;8.02;5.93;;;52.20;29.60;;;;;;4933432;29;20027;-78
2021/07/11 06:46:11;;;;;;;8.98;5.80;;;51.80;29.70;;;;;;4947272;29;20028;-78
2021/07/11 06:48:37;;;;;;;7.05;5.50;;;51.50;29.90;;;;;;4916167;29;20790;-79
2021/07/11 06:51:03;;;;;;;7.85;5.80;;;51.20;29.90;;;;;;4933539;29;20043;-78
2021/07/11 06:53:29;;;;;;;12.00;6.15;;;51.00;30.00;;;;;;4933721;29;20026;-81
2021/07/11 06:55:55;;;;;;;13.60;7.30;;;50.70;29.90;;;;;;4916048;29;20043;-80
2021/07/11 06:58:21;;;;;;;7.70;5.70;;;50.50;30.00;;;;;;4933526;29;20040;-81
2021/07/11 07:00:47;;;;;;;9.88;5.80;;;50.20;30.00;;;;;;4916044;29;20449;-80
2021/07/11 07:03:12;;;;;;;10.10;6.05;;;50.00;30.00;;;;;;4933031;29;20024;-81
2021/07/11 07:05:38;;;;;;;9.35;5.93;;;49.90;30.10;;;;;;4934131;29;20123;-80
2021/07/11 07:08:04;;;;;;;8.45;6.22;;;49.80;30.20;;;;;;4933274;29;20126;-80
2021/07/11 07:10:30;;;;;;;6.13;5.53;;;49.60;30.60;;;;;;4932774;29;20031;-80
2021/07/11 07:12:56;;;;;;;5.47;5.03;;;49.60;30.50;;;;;;4933006;29;20028;-81
2021/07/11 07:15:22;;;;;;;12.13;6.03;;;49.60;30.50;;;;;;4933678;29;20034;-80
2021/07/11 07:17:47;;;;;;;14.73;5.63;;;49.50;30.40;;;;;;4932938;29;20067;-80
2021/07/11 07:20:14;;;;;;;7.53;5.30;;;49.30;30.60;;;;;;4933149;29;20031;-80
2021/07/11 07:22:40;;;;;;;12.65;6.10;;;49.20;30.50;;;;;;4933046;29;20036;-80
2021/07/11 07:25:08;;;;;;;6.18;5.32;;;49.10;30.80;;;;;;4919030;29;20020;-80
2021/07/11 07:27:34;;;;;;;8.27;5.88;;;48.80;30.80;;;;;;4936446;29;20095;-81
2021/07/11 07:30:00;;;;;;;8.13;5.50;;;48.80;30.80;;;;;;4935991;29;20554;-80
2021/07/11 07:32:26;;;;;;;8.63;5.60;;;48.80;31.80;;;;;;4935907;29;20114;-75
2021/07/11 07:34:51;;;;;;;13.32;8.18;;;48.50;30.90;;;;;;4936312;29;20030;-76
2021/07/11 07:37:17;;;;;;;8.43;6.13;;;48.20;31.10;;;;;;4936246;29;20497;-76
2021/07/11 07:39:43;;;;;;;13.73;5.70;;;48.10;31.30;;;;;;4936426;29;20489;-79
2021/07/11 07:42:08;;;;;;;15.40;5.53;;;48.00;31.60;;;;;;4936479;29;20032;-80
2021/07/11 07:44:34;;;;;;;7.32;5.30;;;47.90;31.60;;;;;;4936332;29;20027;-80
2021/07/11 07:47:00;;;;;;;7.88;6.57;;;47.90;31.50;;;;;;4935940;29;20020;-79
2021/07/11 07:49:26;;;;;;;6.68;6.07;;;47.70;31.60;;;;;;4936201;29;20111;-78
2021/07/11 07:51:52;;;;;;;8.02;5.32;;;47.60;31.70;;;;;;4935952;29;20379;-82
2021/07/11 07:54:18;;;;;;;11.30;5.60;;;47.30;31.50;;;;;;4935720;29;20055;-74
2021/07/11 07:56:44;;;;;;;10.13;5.70;;;46.80;31.50;;;;;;4935568;29;20031;-82
2021/07/11 07:59:10;;;;;;;8.32;5.57;;;46.40;32.30;;;;;;4918515;29;20031;-77
2021/07/11 08:01:38;;;;;;;15.45;5.88;;;46.10;32.50;;;;;;4935825;29;20557;-85
2021/07/11 08:04:04;;;;;;;13.75;5.82;;;46.10;32.90;;;;;;4920221;29;20516;-88
2021/07/11 08:06:31;;;;;;;9.00;6.05;;;46.00;33.10;;;;;;4937186;29;20036;-79
2021/07/11 08:08:57;;;;;;;8.77;5.50;;;45.80;33.10;;;;;;4936175;29;20028;-82
2021/07/11 08:11:23;;;;;;;6.63;6.00;;;45.60;33.20;;;;;;4935795;29;20079;-80
2021/07/11 08:13:49;;;;;;;8.43;5.70;;;45.30;33.30;;;;;;4936521;29;20383;-81
2021/07/11 08:16:15;;;;;;;11.23;5.68;;;45.00;33.40;;;;;;4937586;29;20389;-82
2021/07/11 08:18:40;;;;;;;6.22;5.63;;;44.60;33.70;;;;;;4937301;29;20043;-81
2021/07/11 08:21:06;;;;;;;8.25;5.60;;;44.20;33.90;;;;;;4936656;29;20078;-83
2021/07/11 08:23:33;;;;;;;13.30;6.32;;;43.60;34.30;;;;;;4919841;29;20119;-84
2021/07/11 08:25:59;;;;;;;9.10;5.82;;;42.90;34.60;;;;;;4935645;29;20038;-81
2021/07/11 08:28:25;;;;;;;7.88;5.53;;;42.40;35.10;;;;;;4935403;29;20044;-81
2021/07/11 08:30:50;;;;;;;6.90;5.50;;;42.20;35.00;;;;;;4934716;29;20032;-81
2021/07/11 08:33:16;;;;;;;14.02;7.20;;;41.80;34.90;;;;;;4935258;29;20034;-81
2021/07/11 08:35:42;;;;;;;7.15;6.18;;;41.50;35.70;;;;;;4934744;29;20090;-82
2021/07/11 08:38:08;;;;;;;11.27;6.15;;;41.40;36.30;;;;;;4935404;29;20370;-80
2021/07/11 08:40:35;;;;;;;6.95;5.88;;;41.30;36.20;;;;;;4935364;29;20020;-74
2021/07/11 08:43:07;;;;;;;9.85;5.60;;;41.10;36.50;;;;;;4935272;29;20147;-77
2021/07/11 08:45:34;;;;;;;13.68;5.15;;;41.20;36.90;;;;;;4935171;29;20374;-74
2021/07/11 08:48:00;;;;;;;11.52;5.85;;;41.20;36.60;;;;;;4935028;29;20163;-75
2021/07/11 08:50:26;;;;;;;12.45;5.30;;;41.20;36.80;;;;;;4935470;29;20032;-75
2021/07/11 08:52:52;;;;;;;7.40;5.32;;;41.30;36.90;;;;;;4935242;29;20032;-77
2021/07/11 08:55:20;;;;;;;10.45;5.88;;;41.40;36.70;;;;;;4934698;29;20775;-76
2021/07/11 08:57:54;;;;;;;6.90;5.03;;;41.40;36.40;;;;;;4935136;29;20115;-75
2021/07/11 09:00:47;;;;;;;7.22;5.03;;;41.30;36.40;;;;;;4934570;29;20565;-76
2021/07/11 09:03:13;;;;;;;7.28;5.00;;;41.30;35.90;;;;;;4931526;29;20072;-76
2021/07/11 09:05:40;;;;;;;9.63;5.38;;;41.00;35.20;;;;;;4934669;29;20020;-77
2021/07/11 09:08:15;;;;;;;6.95;4.82;;;40.90;35.30;;;;;;4934241;29;20024;-75
2021/07/11 09:10:56;;;;;;;13.25;6.05;;;40.90;34.70;;;;;;4934671;29;20079;-75
2021/07/11 09:13:27;;;;;;;8.95;5.57;;;40.80;34.90;;;;;;4934409;29;20043;-77
2021/07/11 09:15:55;;;;;;;9.15;5.30;;;40.80;34.90;;;;;;4934151;29;20035;-75
2021/07/11 09:18:32;;;;;;;11.13;5.18;;;40.90;34.90;;;;;;4934386;29;20106;-79
2021/07/11 09:21:00;;;;;;;12.02;5.20;;;40.90;35.10;;;;;;4934489;29;20354;-73
2021/07/11 09:23:27;;;;;;;8.80;5.35;;;41.00;35.20;;;;;;4934120;29;20031;-76
2021/07/11 09:26:01;;;;;;;5.82;4.88;;;40.90;35.50;;;;;;4934381;29;20036;-75
2021/07/11 09:28:29;;;;;;;6.22;4.70;;;40.70;34.80;;;;;;4934301;29;20517;-76
2021/07/11 09:31:23;;;;;;;12.55;5.50;;;40.40;34.90;;;;;;4934188;29;20073;-78
2021/07/11 09:33:57;;;;;;;10.15;5.18;;;40.10;34.90;;;;;;4915249;29;20036;-77
2021/07/11 09:36:23;;;;;;;12.57;5.40;;;40.00;35.00;;;;;;4934756;29;20028;-75
2021/07/11 09:38:54;;;;;;;6.85;5.15;;;40.00;35.30;;;;;;4934068;29;20072;-76
2021/07/11 09:41:33;;;;;;;11.00;5.35;;;39.80;34.90;;;;;;4934296;29;20020;-76
2021/07/11 09:44:00;;;;;;;8.63;5.03;;;39.50;35.00;;;;;;4934514;29;20028;-77
2021/07/11 09:46:33;;;;;;;7.18;5.28;;;39.10;35.30;;;;;;4934367;29;20138;-76
2021/07/11 09:48:59;;;;;;;6.85;4.93;;;38.90;35.60;;;;;;4933207;29;20032;-75
2021/07/11 09:51:29;;;;;;;10.75;5.10;;;38.80;35.50;;;;;;4934209;29;20032;-76
2021/07/11 09:54:15;;;;;;;11.45;6.10;;;38.70;35.90;;;;;;4933930;29;20038;-77
2021/07/11 09:56:43;;;;;;;9.98;5.00;;;38.60;36.00;;;;;;4934261;29;20054;-76
2021/07/11 09:59:18;;;;;;;7.80;5.40;;;38.50;36.10;;;;;;4934116;29;20075;-77
2021/07/11 10:01:45;;;;;;;8.25;5.30;;;38.40;36.20;;;;;;4934017;29;20137;-76
2021/07/11 10:04:12;;;;;;;8.77;5.35;;;38.30;36.20;;;;;;4933977;29;20098;-78
2021/07/11 10:06:39;;;;;;;8.40;5.78;;;38.30;36.20;;;;;;4934124;29;20087;-77
2021/07/11 10:09:07;;;;;;;8.13;6.68;;;38.10;36.00;;;;;;4934312;29;20080;-75
2021/07/11 10:11:33;;;;;;;8.60;5.85;;;37.90;36.40;;;;;;4933509;29;20181;-76
2021/07/11 10:13:59;;;;;;;12.40;6.70;;;37.80;37.10;;;;;;4934024;29;20082;-80
2021/07/11 10:16:27;;;;;;;7.93;5.45;;;37.70;37.20;;;;;;4933429;29;20476;-81
2021/07/11 10:19:00;;;;;;;8.38;5.38;;;37.60;37.10;;;;;;4933705;29;20063;-81
2021/07/11 10:21:39;;;;;;;7.03;6.32;;;37.40;37.10;;;;;;4934234;29;20106;-81
2021/07/11 10:24:15;;;;;;;10.85;5.90;;;37.30;37.40;;;;;;4933809;29;20024;-81
2021/07/11 10:26:41;;;;;;;6.28;5.65;;;37.30;37.30;;;;;;4933786;29;20151;-81
2021/07/11 10:29:19;;;;;;;7.88;5.95;;;37.20;37.40;;;;;;4934675;29;20051;-82
2021/07/11 10:31:48;;;;;;;6.90;6.00;;;37.00;37.60;;;;;;4933809;29;20031;-82
2021/07/11 10:34:28;;;;;;;9.32;6.90;;;36.70;37.90;;;;;;4916998;29;20064;-82
2021/07/11 10:36:54;;;;;;;12.00;5.95;;;36.40;38.10;;;;;;4934054;29;20051;-80
2021/07/11 10:39:20;;;;;;;8.57;6.00;;;36.40;38.30;;;;;;4947985;28;20497;-79
2021/07/11 10:41:51;;;;;;;6.43;5.72;;;36.40;38.30;;;;;;4933467;29;20023;-80
2021/07/11 10:44:18;;;;;;;;;;;36.30;38.50;;;;;;4934081;29;20035;-81
2021/07/11 10:46:51;;;;;;;7.55;5.65;;;36.30;38.50;;;;;;4916807;29;19910;-80
2021/07/11 10:49:17;;;;;;;7.30;6.10;;;36.30;38.80;;;;;;4916877;29;20083;-78
2021/07/11 10:52:05;;;;;;;7.80;5.85;;;36.20;38.10;;;;;;4933984;29;20335;-78
2021/07/11 10:54:49;;;;;;;8.10;6.05;;;36.00;38.50;;;;;;4933254;29;20051;-80
2021/07/11 10:57:27;;;;;;;13.75;9.45;;;35.90;38.70;;;;;;4933368;29;20043;-80
2021/07/11 10:59:52;;;;;;;7.95;6.68;;;35.90;39.00;;;;;;4937670;29;20032;-82
2021/07/11 11:02:23;;;;;;;16.58;7.43;;;36.00;38.50;;;;;;4937883;29;20090;-82
2021/07/11 11:05:11;;;;;;;9.60;6.72;;;35.80;38.50;;;;;;4937946;29;20024;-84
2021/07/11 11:07:56;;;;;;;11.80;7.10;;;35.70;38.80;;;;;;4938315;29;20052;-82
2021/07/11 11:10:33;;;;;;;13.75;7.43;;;35.80;38.50;;;;;;4938394;29;20031;-81
2021/07/11 11:13:06;;;;;;;9.75;6.95;;;35.90;38.80;;;;;;4938413;29;20031;-83
2021/07/11 11:15:54;;;;;;;9.00;6.50;;;35.90;38.40;;;;;;4938534;29;20083;-83
2021/07/11 11:18:33;;;;;;;19.05;10.40;;;35.80;38.30;;;;;;4931700;29;20055;-84
2021/07/11 11:21:09;;;;;;;7.50;6.03;;;35.70;38.90;;;;;;4938285;29;20027;-84
2021/07/11 11:23:40;;;;;;;9.60;6.72;;;35.80;38.70;;;;;;4938214;29;20024;-82
2021/07/11 11:26:06;;;;;;;;;;;35.80;38.80;;;;;;4938129;29;20367;-81
2021/07/11 11:28:35;;;;;;;10.98;7.45;;;35.80;38.60;;;;;;4937660;29;20269;-83
2021/07/11 11:31:16;;;;;;;8.95;7.18;;;35.90;38.70;;;;;;4921011;29;20114;-82
2021/07/11 11:33:59;;;;;;;13.90;9.23;;;35.90;38.70;;;;;;4939603;29;20390;-81
2021/07/11 11:36:32;;;;;;;20.35;14.75;;;36.00;38.90;;;;;;4921329;29;20035;-83
2021/07/11 11:39:07;;;;;;;9.30;6.80;;;36.00;38.90;;;;;;4937583;29;20042;-82
2021/07/11 11:41:33;;;;;;;17.50;8.25;;;36.10;39.10;;;;;;4937414;29;20217;-82
2021/07/11 11:44:08;;;;;;;15.15;8.73;;;36.10;38.90;;;;;;4937170;29;20024;-83
2021/07/11 11:46:35;;;;;;;13.90;8.77;;;36.10;38.90;;;;;;4937164;29;20030;-82
2021/07/11 11:49:07;;;;;;;9.95;7.80;;;36.20;39.00;;;;;;4937526;29;20051;-81
2021/07/11 11:51:34;;;;;;;13.98;11.65;;;36.10;38.80;;;;;;4937423;29;20024;-80
2021/07/11 11:54:00;;;;;;;10.98;6.88;;;36.00;39.00;;;;;;4937107;29;20110;-81
2021/07/11 11:56:26;;;;;;;10.43;7.30;;;36.00;39.10;;;;;;4920364;29;20183;-81
2021/07/11 11:59:01;;;;;;;56.60;39.42;;;35.80;39.00;;;;;;4937379;29;20031;-82
2021/07/11 12:01:31;;;;;;;13.27;10.85;;;35.70;39.10;;;;;;4920566;29;20023;-82
2021/07/11 12:04:10;;;;;;;12.63;10.25;;;35.70;39.00;;;;;;4937683;29;20057;-81
2021/07/11 12:06:37;;;;;;;12.00;7.70;;;35.60;39.20;;;;;;4937236;29;20103;-80
2021/07/11 12:09:03;;;;;;;12.05;7.57;;;35.50;39.40;;;;;;4936757;29;20026;-82
2021/07/11 12:11:29;;;;;;;22.15;17.48;;;35.50;39.80;;;;;;4937120;29;20064;-81
2021/07/11 12:14:06;;;;;;;12.00;7.43;;;35.40;39.90;;;;;;4920605;29;20028;-81
2021/07/11 12:16:32;;;;;;;9.82;6.70;;;35.30;40.60;;;;;;4937023;29;20031;-81
2021/07/11 12:18:58;;;;;;;9.70;7.15;;;35.20;40.10;;;;;;4936752;29;20038;-80
2021/07/11 12:21:30;;;;;;;12.20;8.10;;;35.20;40.40;;;;;;4936554;29;20463;-80
2021/07/11 12:24:03;;;;;;;12.88;7.30;;;35.30;40.70;;;;;;4936814;29;20427;-82
2021/07/11 12:26:31;;;;;;;12.70;10.10;;;35.30;40.70;;;;;;4936441;29;20079;-80
2021/07/11 12:28:58;;;;;;;7.80;7.00;;;35.20;40.70;;;;;;4936825;29;20043;-81
2021/07/11 12:31:26;;;;;;;9.63;6.70;;;35.30;40.50;;;;;;4936367;29;20055;-81
2021/07/11 12:34:06;;;;;;;16.08;11.13;;;35.10;40.40;;;;;;4936314;29;20335;-81
2021/07/11 12:36:33;;;;;;;8.93;7.55;;;35.00;40.80;;;;;;4935944;29;20023;-81
2021/07/11 12:39:00;;;;;;;10.95;6.63;;;34.90;40.70;;;;;;4936067;29;20496;-83
2021/07/11 12:41:32;;;;;;;8.85;6.95;;;34.70;40.90;;;;;;4935965;29;20031;-81
2021/07/11 12:44:02;;;;;;;61.88;39.28;;;34.40;41.00;;;;;;4935882;29;20023;-81
2021/07/11 12:46:28;;;;;;;9.32;6.90;;;34.40;41.50;;;;;;4935834;29;20421;-81